Time;durP1;ratioP1;P1;durP2;ratioP2;P2;SDS_P1;SDS_P2;PMS_P1;PMS_P2;Temp;Humidity;BMP_temperature;BMP_pressure;BME280_temperature;BME280_humidity;BME280_pressure;Samples;Min_cycle;Max_cycle;Signal;HPM_P1;HPM_P2
2023/08/16 00:00:21;;;;;;;8.88;2.95;;;21.80;92.40;;;;;;4949458;28;20039;-85
2023/08/16 00:02:48;;;;;;;5.55;2.28;;;21.80;92.40;;;;;;4950471;28;20767;-84
2023/08/16 00:05:14;;;;;;;7.53;2.50;;;21.80;92.50;;;;;;4947130;28;20513;-83
2023/08/16 00:07:39;;;;;;;2.92;2.10;;;21.80;92.40;;;;;;4952659;28;20035;-85
2023/08/16 00:10:12;;;;;;;7.15;2.72;;;21.80;92.50;;;;;;4948620;28;20027;-84
2023/08/16 00:12:38;;;;;;;;;;;21.80;92.50;;;;;;4950886;28;20031;-85
2023/08/16 00:15:06;;;;;;;14.88;2.25;;;21.80;92.60;;;;;;4950901;28;20672;-85
2023/08/16 00:17:32;;;;;;;5.78;2.33;;;21.80;92.60;;;;;;4948948;28;20543;-84
2023/08/16 00:19:58;;;;;;;7.97;2.22;;;21.80;92.60;;;;;;4951751;28;20458;-84
2023/08/16 00:22:23;;;;;;;2.47;2.05;;;21.80;92.70;;;;;;4952194;28;20045;-85
2023/08/16 00:24:49;;;;;;;3.03;2.10;;;21.70;92.70;;;;;;4949997;28;20040;-84
2023/08/16 00:27:14;;;;;;;3.20;1.95;;;21.70;92.70;;;;;;4945088;28;20034;-84
2023/08/16 00:29:40;;;;;;;5.95;2.20;;;21.70;92.80;;;;;;4948094;28;20478;-84
2023/08/16 00:32:07;;;;;;;4.95;2.55;;;21.70;92.70;;;;;;5091491;23;20091;-81
2023/08/16 00:34:33;;;;;;;8.88;2.50;;;21.70;93.00;;;;;;4951412;28;20023;-81
2023/08/16 00:36:59;;;;;;;7.20;3.00;;;21.70;93.00;;;;;;4938588;28;20475;-81
2023/08/16 00:39:24;;;;;;;9.57;2.40;;;21.60;92.80;;;;;;4940331;28;20490;-80
2023/08/16 00:41:50;;;;;;;5.05;2.67;;;21.60;92.90;;;;;;4951402;28;20219;-80
2023/08/16 00:44:15;;;;;;;6.82;2.90;;;21.60;92.90;;;;;;4952022;28;20015;-84
2023/08/16 00:46:41;;;;;;;7.13;2.75;;;21.60;92.80;;;;;;4940331;28;20930;-84
2023/08/16 00:49:12;;;;;;;5.15;2.40;;;21.60;92.90;;;;;;4950917;28;20023;-84
2023/08/16 00:51:38;;;;;;;4.60;2.60;;;21.60;93.00;;;;;;4951073;28;20704;-84
2023/08/16 00:54:04;;;;;;;5.75;2.50;;;21.60;93.20;;;;;;4950064;28;20027;-85
2023/08/16 00:56:32;;;;;;;9.10;2.80;;;21.60;93.30;;;;;;4938920;28;20014;-84
2023/08/16 00:58:58;;;;;;;7.25;2.72;;;21.60;93.40;;;;;;4931549;28;20027;-83
2023/08/16 01:01:24;;;;;;;5.68;2.30;;;21.60;93.70;;;;;;4932549;28;20066;-83
2023/08/16 01:03:50;;;;;;;10.13;2.75;;;21.50;93.40;;;;;;4950003;28;20011;-84
2023/08/16 01:06:16;;;;;;;3.38;2.28;;;21.50;93.40;;;;;;4938527;28;20130;-84
2023/08/16 01:08:44;;;;;;;4.18;2.38;;;21.50;93.40;;;;;;4929323;28;20117;-84
2023/08/16 01:11:17;;;;;;;4.47;2.45;;;21.50;93.40;;;;;;4952094;28;20602;-84
2023/08/16 01:14:06;;;;;;;4.82;2.28;;;21.40;93.60;;;;;;4953173;28;20070;-84
2023/08/16 01:16:33;;;;;;;4.90;2.42;;;21.50;93.80;;;;;;4951088;28;20107;-84
2023/08/16 01:19:00;;;;;;;3.80;2.55;;;21.40;93.50;;;;;;4943039;28;20086;-84
2023/08/16 01:21:26;;;;;;;6.25;2.40;;;21.40;93.70;;;;;;4937268;28;20435;-83
2023/08/16 01:24:23;;;;;;;7.47;2.50;;;21.40;93.50;;;;;;4953035;28;20015;-84
2023/08/16 01:26:50;;;;;;;6.45;2.33;;;21.40;93.50;;;;;;4952392;28;20391;-84
2023/08/16 01:29:18;;;;;;;5.15;2.58;;;21.50;93.50;;;;;;4965728;28;20031;-85
2023/08/16 01:31:44;;;;;;;7.90;2.85;;;21.50;93.50;;;;;;4960722;28;20025;-84
2023/08/16 01:34:10;;;;;;;6.35;3.00;;;21.40;93.50;;;;;;4950329;28;20031;-84
2023/08/16 01:36:35;;;;;;;3.80;2.47;;;21.40;93.60;;;;;;4937532;28;20295;-85
2023/08/16 01:39:01;;;;;;;8.13;2.67;;;21.40;94.00;;;;;;4948905;28;20015;-84
2023/08/16 01:41:40;;;;;;;5.90;2.70;;;21.40;93.50;;;;;;4952837;28;20034;-84
2023/08/16 01:44:08;;;;;;;8.05;2.83;;;21.40;93.70;;;;;;4941663;28;20027;-83
2023/08/16 01:46:35;;;;;;;10.30;2.75;;;21.40;93.80;;;;;;4952355;28;20066;-83
2023/08/16 01:49:01;;;;;;;5.25;3.17;;;21.40;93.70;;;;;;4976583;28;20043;-84
2023/08/16 01:51:27;;;;;;;4.00;2.75;;;21.40;93.90;;;;;;4959040;28;20070;-84
2023/08/16 01:53:53;;;;;;;4.93;2.83;;;21.40;93.80;;;;;;4957779;28;20039;-84
2023/08/16 01:56:20;;;;;;;6.47;2.85;;;21.40;94.00;;;;;;4950270;28;20719;-84
2023/08/16 01:58:46;;;;;;;6.93;2.85;;;21.40;93.90;;;;;;4950438;28;20037;-84
2023/08/16 02:01:15;;;;;;;4.88;2.33;;;21.40;93.80;;;;;;4949626;28;20035;-81
2023/08/16 02:03:41;;;;;;;6.07;2.38;;;21.40;93.70;;;;;;4947224;28;20078;-81
2023/08/16 02:06:06;;;;;;;6.15;2.47;;;21.40;93.60;;;;;;4930654;28;20039;-81
2023/08/16 02:08:32;;;;;;;4.40;2.72;;;21.40;94.00;;;;;;4948810;28;20106;-81
2023/08/16 02:10:58;;;;;;;3.88;2.55;;;21.30;93.90;;;;;;4937495;28;20415;-81
2023/08/16 02:13:26;;;;;;;4.00;2.70;;;21.20;94.40;;;;;;4949473;28;20031;-81
2023/08/16 02:15:59;;;;;;;6.22;2.80;;;21.20;94.30;;;;;;4948328;28;20031;-82
2023/08/16 02:18:25;;;;;;;3.35;2.78;;;21.10;94.40;;;;;;4937237;28;20035;-80
2023/08/16 02:20:54;;;;;;;3.25;2.33;;;21.10;94.60;;;;;;4929869;28;20299;-81
2023/08/16 02:23:19;;;;;;;5.45;2.55;;;21.10;94.70;;;;;;4948476;28;20083;-81
2023/08/16 02:25:47;;;;;;;7.35;2.65;;;21.10;94.80;;;;;;4949843;28;20547;-81
2023/08/16 02:28:13;;;;;;;16.23;3.22;;;21.10;94.70;;;;;;4951438;28;20034;-81
2023/08/16 02:30:38;;;;;;;4.13;2.70;;;21.10;94.70;;;;;;4950116;28;20495;-82
2023/08/16 02:33:04;;;;;;;8.60;3.05;;;21.20;94.70;;;;;;4940076;28;20534;-81
2023/08/16 02:35:31;;;;;;;3.33;2.70;;;21.10;94.60;;;;;;4957121;28;20026;-81
2023/08/16 02:37:57;;;;;;;5.07;2.90;;;21.20;94.60;;;;;;4961307;28;20122;-81
2023/08/16 02:40:22;;;;;;;8.95;3.00;;;21.20;94.40;;;;;;4939275;28;20122;-81
2023/08/16 02:42:49;;;;;;;6.20;2.60;;;21.30;94.30;;;;;;4961052;28;20494;-80
2023/08/16 02:45:15;;;;;;;6.43;2.58;;;21.30;94.40;;;;;;4941883;28;20054;-81
2023/08/16 02:47:43;;;;;;;5.38;2.47;;;21.20;94.80;;;;;;4961315;28;20360;-81
2023/08/16 02:50:09;;;;;;;8.05;2.80;;;21.10;95.00;;;;;;4959247;28;20109;-81
2023/08/16 02:52:35;;;;;;;5.93;2.78;;;21.10;95.20;;;;;;4960615;28;20122;-81
2023/08/16 02:55:00;;;;;;;5.05;2.70;;;21.10;95.50;;;;;;4959176;28;20069;-81
2023/08/16 02:57:29;;;;;;;3.30;2.80;;;21.00;95.60;;;;;;4941779;28;20022;-81
2023/08/16 02:59:54;;;;;;;4.68;2.60;;;21.00;95.70;;;;;;4962149;28;20042;-81
2023/08/16 03:02:20;;;;;;;6.50;3.10;;;20.90;95.90;;;;;;4958910;28;20475;-81
2023/08/16 03:04:45;;;;;;;6.05;2.95;;;21.00;96.00;;;;;;4958275;28;20230;-81
2023/08/16 03:07:11;;;;;;;9.90;2.67;;;21.10;95.60;;;;;;4956650;28;20019;-80
2023/08/16 03:09:38;;;;;;;9.38;2.70;;;21.10;95.80;;;;;;4941205;28;20035;-81
2023/08/16 03:12:04;;;;;;;7.43;3.10;;;21.20;95.40;;;;;;4960353;28;20422;-80
2023/08/16 03:14:30;;;;;;;7.80;2.95;;;21.10;95.30;;;;;;4940902;28;20024;-80
2023/08/16 03:16:57;;;;;;;4.65;2.95;;;21.00;95.40;;;;;;4942571;28;20092;-81
2023/08/16 03:19:22;;;;;;;4.65;3.40;;;21.00;95.70;;;;;;4959906;28;20035;-81
2023/08/16 03:21:48;;;;;;;6.38;3.20;;;20.90;96.00;;;;;;4957966;28;20126;-80
2023/08/16 03:24:14;;;;;;;6.65;3.25;;;20.90;96.30;;;;;;4942686;28;20042;-81
2023/08/16 03:26:39;;;;;;;6.70;3.35;;;20.80;96.30;;;;;;4955853;28;20031;-81
2023/08/16 03:29:05;;;;;;;5.80;3.22;;;20.80;96.50;;;;;;4961119;28;20119;-81
2023/08/16 03:31:31;;;;;;;5.50;3.50;;;20.80;96.50;;;;;;4960810;28;20126;-81
2023/08/16 03:33:56;;;;;;;5.90;3.17;;;20.80;96.30;;;;;;4959528;28;20027;-82
2023/08/16 03:36:22;;;;;;;4.95;3.13;;;20.60;96.40;;;;;;4963914;28;20019;-81
2023/08/16 03:38:47;;;;;;;5.40;3.70;;;20.60;96.70;;;;;;4947854;28;20046;-81
2023/08/16 03:41:13;;;;;;;5.45;3.67;;;20.50;97.10;;;;;;4942399;28;20117;-81
2023/08/16 03:43:39;;;;;;;5.68;3.67;;;20.50;97.70;;;;;;4964671;28;20034;-80
2023/08/16 03:46:05;;;;;;;5.78;3.75;;;20.50;97.90;;;;;;4964675;28;20027;-80
2023/08/16 03:48:30;;;;;;;11.20;4.35;;;20.40;98.30;;;;;;4944332;28;20023;-80
2023/08/16 03:50:56;;;;;;;6.07;4.47;;;20.30;99.00;;;;;;4964198;28;20029;-80
2023/08/16 03:53:22;;;;;;;7.22;4.35;;;20.10;99.90;;;;;;4946786;28;20023;-80
2023/08/16 03:55:48;;;;;;;8.15;4.90;;;20.00;99.90;;;;;;4959119;28;20027;-80
2023/08/16 03:58:16;;;;;;;6.93;4.88;;;19.90;99.90;;;;;;4958063;28;20027;-85
2023/08/16 04:00:41;;;;;;;11.85;5.65;;;19.80;99.90;;;;;;4948068;28;20114;-86
2023/08/16 04:03:07;;;;;;;10.77;5.93;;;19.70;99.90;;;;;;4966525;28;20141;-86
2023/08/16 04:05:33;;;;;;;11.20;5.55;;;19.60;99.90;;;;;;4947558;28;20624;-86
2023/08/16 04:07:59;;;;;;;10.90;6.00;;;19.60;99.90;;;;;;4965955;28;20027;-87
2023/08/16 04:10:27;;;;;;;9.48;5.70;;;19.70;99.90;;;;;;4949780;28;20543;-85
2023/08/16 04:12:52;;;;;;;10.68;6.00;;;19.70;99.90;;;;;;4944998;28;20661;-87
2023/08/16 04:15:18;;;;;;;9.07;5.95;;;19.70;99.90;;;;;;4945767;28;20227;-85
2023/08/16 04:17:43;;;;;;;12.77;6.05;;;19.70;99.90;;;;;;4962527;28;20082;-85
2023/08/16 04:20:10;;;;;;;13.10;5.70;;;19.70;99.90;;;;;;4948165;28;20059;-84
2023/08/16 04:22:35;;;;;;;11.93;6.47;;;19.60;99.90;;;;;;4963756;28;20129;-87
2023/08/16 04:25:01;;;;;;;7.65;5.85;;;19.50;99.90;;;;;;4962381;28;20451;-86
2023/08/16 04:27:27;;;;;;;7.88;5.90;;;19.40;99.90;;;;;;4964594;28;20042;-85
2023/08/16 04:29:53;;;;;;;8.63;6.28;;;19.40;99.90;;;;;;4945887;28;20045;-86
2023/08/16 04:32:19;;;;;;;11.77;6.40;;;19.40;99.90;;;;;;4964100;28;20042;-87
2023/08/16 04:34:44;;;;;;;10.40;5.80;;;19.40;99.90;;;;;;4962591;28;20394;-85
2023/08/16 04:37:10;;;;;;;11.23;7.97;;;19.30;99.90;;;;;;4962611;28;20037;-85
2023/08/16 04:39:36;;;;;;;15.63;7.80;;;19.30;99.90;;;;;;4961951;28;20029;-86
2023/08/16 04:42:01;;;;;;;10.05;7.05;;;19.30;99.90;;;;;;4966509;28;20034;-85
2023/08/16 04:44:27;;;;;;;6.75;6.00;;;19.40;99.90;;;;;;4968638;28;20019;-84
2023/08/16 04:46:55;;;;;;;13.88;7.18;;;19.20;99.90;;;;;;4990668;28;20115;-85
2023/08/16 04:49:22;;;;;;;12.45;6.43;;;19.10;99.90;;;;;;4989007;28;20015;-88
2023/08/16 04:51:47;;;;;;;10.82;6.93;;;19.20;99.90;;;;;;4967834;28;20031;-85
2023/08/16 04:54:13;;;;;;;14.57;6.28;;;19.30;99.90;;;;;;4950403;28;20053;-86
2023/08/16 04:56:38;;;;;;;12.30;6.88;;;19.30;99.90;;;;;;4947478;28;20027;-85
2023/08/16 04:59:04;;;;;;;13.77;6.30;;;19.40;99.90;;;;;;4955390;28;20113;-86
2023/08/16 05:01:31;;;;;;;8.02;6.18;;;19.40;99.90;;;;;;4965953;28;20101;-86
2023/08/16 05:03:56;;;;;;;6.55;5.30;;;19.40;99.90;;;;;;4962701;28;20029;-85
2023/08/16 05:06:22;;;;;;;9.90;5.50;;;19.40;99.90;;;;;;4964503;28;20023;-85
2023/08/16 05:08:47;;;;;;;13.27;6.03;;;19.40;99.90;;;;;;4946163;28;20027;-88
2023/08/16 05:11:13;;;;;;;11.60;5.95;;;19.40;99.90;;;;;;4962777;28;20089;-83
2023/08/16 05:13:39;;;;;;;11.02;6.20;;;19.40;99.90;;;;;;4958602;28;20041;-87
2023/08/16 05:16:04;;;;;;;12.05;5.75;;;19.40;99.90;;;;;;4952895;28;20053;-86
2023/08/16 05:18:30;;;;;;;13.20;6.60;;;19.50;99.90;;;;;;4962430;28;20073;-85
2023/08/16 05:20:56;;;;;;;11.38;5.97;;;19.50;99.90;;;;;;4944919;28;20046;-84
2023/08/16 05:23:22;;;;;;;8.95;5.85;;;19.50;99.90;;;;;;4964998;28;20030;-83
2023/08/16 05:25:48;;;;;;;8.88;6.10;;;19.40;99.90;;;;;;4963215;28;20347;-84
2023/08/16 05:28:14;;;;;;;7.22;5.18;;;19.30;99.90;;;;;;4950273;28;20511;-85
2023/08/16 05:30:40;;;;;;;7.30;5.38;;;19.20;99.90;;;;;;4951874;28;20267;-85
2023/08/16 05:33:05;;;;;;;10.50;6.00;;;19.20;99.90;;;;;;4945352;28;20056;-85
2023/08/16 05:35:34;;;;;;;9.10;6.40;;;19.20;99.90;;;;;;4962126;28;20089;-84
2023/08/16 05:38:00;;;;;;;7.80;6.03;;;19.30;99.90;;;;;;4963252;28;20035;-86
2023/08/16 05:40:26;;;;;;;8.25;5.57;;;19.30;99.90;;;;;;4943923;28;20479;-85
2023/08/16 05:42:51;;;;;;;8.65;5.40;;;19.40;99.90;;;;;;4954145;28;20042;-85
2023/08/16 05:45:21;;;;;;;8.05;5.43;;;19.40;99.90;;;;;;4963188;28;20030;-85
2023/08/16 05:47:46;;;;;;;9.13;6.07;;;19.40;99.90;;;;;;4963806;28;20027;-87
2023/08/16 05:50:12;;;;;;;8.73;5.10;;;19.40;99.90;;;;;;4945717;28;20030;-85
2023/08/16 05:52:38;;;;;;;9.77;5.43;;;19.40;99.90;;;;;;4963778;28;20038;-84
2023/08/16 05:55:06;;;;;;;7.07;4.80;;;19.40;99.90;;;;;;4944838;28;20503;-87
2023/08/16 05:57:32;;;;;;;19.67;6.07;;;19.40;99.90;;;;;;4946631;28;20495;-84
2023/08/16 05:59:57;;;;;;;11.73;5.57;;;19.40;99.90;;;;;;4963431;28;20057;-84
2023/08/16 06:02:23;;;;;;;13.60;5.68;;;19.40;99.90;;;;;;4963412;28;20063;-86
2023/08/16 06:04:50;;;;;;;18.67;5.22;;;19.50;99.90;;;;;;4964667;28;20130;-85
2023/08/16 06:07:16;;;;;;;9.90;5.28;;;19.50;99.90;;;;;;4964060;28;20027;-84
2023/08/16 06:09:42;;;;;;;10.32;5.05;;;19.50;99.90;;;;;;4945449;28;20023;-84
2023/08/16 06:12:08;;;;;;;11.25;4.88;;;19.60;99.90;;;;;;4943436;28;20383;-79
2023/08/16 06:14:33;;;;;;;5.47;4.97;;;19.70;99.90;;;;;;4939688;28;20027;-84
2023/08/16 06:16:59;;;;;;;5.43;4.90;;;19.70;99.90;;;;;;4962104;28;20077;-85
2023/08/16 06:19:24;;;;;;;8.15;4.57;;;19.80;99.90;;;;;;4957283;28;20034;-87
2023/08/16 06:21:53;;;;;;;9.02;5.20;;;19.80;99.90;;;;;;4963720;28;20034;-85
2023/08/16 06:24:19;;;;;;;15.18;5.47;;;19.90;99.90;;;;;;4944217;28;20038;-83
2023/08/16 06:26:45;;;;;;;6.78;4.95;;;20.00;99.90;;;;;;4946053;28;20053;-87
2023/08/16 06:29:11;;;;;;;12.13;6.10;;;20.00;99.90;;;;;;4935869;28;20694;-79
2023/08/16 06:31:39;;;;;;;13.18;5.63;;;20.10;99.90;;;;;;4956395;28;20114;-80
2023/08/16 06:34:05;;;;;;;13.15;7.03;;;20.10;99.90;;;;;;4947346;28;20535;-83
2023/08/16 06:36:31;;;;;;;12.07;5.60;;;20.10;99.90;;;;;;4943054;28;20514;-80
2023/08/16 06:38:56;;;;;;;7.53;4.60;;;20.20;99.90;;;;;;4956499;28;20026;-80
2023/08/16 06:41:22;;;;;;;12.80;5.75;;;20.20;99.90;;;;;;4956191;28;20035;-79
2023/08/16 06:43:47;;;;;;;7.35;4.82;;;20.30;99.90;;;;;;4950827;28;20068;-79
2023/08/16 06:46:13;;;;;;;9.75;4.38;;;20.30;99.90;;;;;;4940814;28;20035;-79
2023/08/16 06:48:39;;;;;;;6.45;5.07;;;20.30;99.90;;;;;;4960976;28;20027;-79
2023/08/16 06:51:05;;;;;;;7.38;5.28;;;20.40;99.90;;;;;;4954679;28;20364;-80
2023/08/16 06:53:33;;;;;;;10.95;4.95;;;20.40;99.90;;;;;;4938485;28;20019;-78
2023/08/16 06:55:58;;;;;;;10.73;5.28;;;20.50;99.90;;;;;;4958279;28;20026;-79
2023/08/16 06:58:24;;;;;;;9.50;5.38;;;20.50;99.90;;;;;;4957394;28;20031;-79
2023/08/16 07:00:52;;;;;;;8.88;5.10;;;20.60;99.90;;;;;;4941459;28;20442;-79
2023/08/16 07:03:18;;;;;;;8.38;4.47;;;20.60;99.90;;;;;;4958139;28;20039;-79
2023/08/16 07:05:44;;;;;;;11.43;5.57;;;20.70;99.90;;;;;;4958200;28;20392;-79
2023/08/16 07:08:09;;;;;;;6.75;4.90;;;20.80;99.90;;;;;;4941946;28;20039;-79
2023/08/16 07:10:35;;;;;;;10.38;5.13;;;20.90;99.90;;;;;;4958063;28;20391;-79
2023/08/16 07:13:02;;;;;;;12.05;5.00;;;20.90;99.90;;;;;;4947811;28;20046;-84
2023/08/16 07:15:28;;;;;;;15.65;5.78;;;21.00;99.90;;;;;;4960160;28;20557;-86
2023/08/16 07:17:54;;;;;;;12.77;5.72;;;21.00;99.90;;;;;;4944816;28;20023;-79
2023/08/16 07:20:19;;;;;;;10.80;5.82;;;21.00;99.90;;;;;;4949209;28;20427;-79
2023/08/16 07:22:45;;;;;;;39.42;16.85;;;21.00;99.90;;;;;;4942048;28;20089;-79
2023/08/16 07:25:11;;;;;;;21.52;8.60;;;21.10;99.90;;;;;;4936471;28;20105;-80
2023/08/16 07:27:37;;;;;;;10.27;5.85;;;21.10;99.90;;;;;;4943122;28;20130;-80
2023/08/16 07:30:04;;;;;;;10.57;6.05;;;21.20;99.90;;;;;;4942662;28;20566;-80
2023/08/16 07:32:30;;;;;;;11.40;5.72;;;21.30;99.90;;;;;;4960645;28;20049;-80
2023/08/16 07:34:56;;;;;;;14.30;6.30;;;21.30;99.90;;;;;;4959542;28;20023;-80
2023/08/16 07:37:31;;;;;;;10.15;5.82;;;21.40;99.90;;;;;;4942236;28;20034;-80
2023/08/16 07:40:00;;;;;;;8.57;5.50;;;21.30;99.90;;;;;;4956551;28;20026;-79
2023/08/16 07:42:26;;;;;;;10.35;5.38;;;21.50;99.90;;;;;;4941289;28;20035;-80
2023/08/16 07:44:52;;;;;;;13.13;6.15;;;21.50;99.90;;;;;;4958386;28;20375;-80
2023/08/16 07:47:20;;;;;;;20.25;8.95;;;21.50;99.90;;;;;;4957627;28;20391;-81
2023/08/16 07:49:46;;;;;;;12.43;7.30;;;21.60;99.90;;;;;;4965945;28;20816;-79
2023/08/16 07:52:12;;;;;;;13.68;6.43;;;21.70;99.90;;;;;;4959748;28;20019;-79
2023/08/16 07:54:37;;;;;;;13.57;6.45;;;21.80;99.90;;;;;;4965032;28;20493;-79
2023/08/16 07:57:05;;;;;;;20.13;9.23;;;21.80;99.90;;;;;;4959542;28;20035;-79
2023/08/16 07:59:32;;;;;;;10.80;6.50;;;21.90;99.70;;;;;;4962099;28;20442;-79
2023/08/16 08:02:00;;;;;;;10.23;6.78;;;22.00;99.60;;;;;;4962653;28;20039;-83
2023/08/16 08:04:26;;;;;;;10.60;5.60;;;22.10;99.70;;;;;;4943701;28;20980;-79
2023/08/16 08:06:56;;;;;;;16.00;6.38;;;22.20;99.50;;;;;;4963768;28;20154;-78
2023/08/16 08:09:21;;;;;;;12.38;5.90;;;22.20;99.20;;;;;;4941239;28;20572;-78
2023/08/16 08:11:47;;;;;;;64.30;25.80;;;22.30;99.30;;;;;;4963151;28;20056;-80
2023/08/16 08:14:15;;;;;;;41.08;15.93;;;22.40;99.00;;;;;;4947829;28;20026;-80
2023/08/16 08:16:41;;;;;;;12.38;6.47;;;22.40;98.80;;;;;;4948897;28;20039;-82
2023/08/16 08:19:06;;;;;;;12.88;5.80;;;22.50;98.60;;;;;;4945775;28;20110;-80
2023/08/16 08:21:32;;;;;;;12.18;6.00;;;22.50;98.20;;;;;;4962697;28;20059;-79
2023/08/16 08:24:00;;;;;;;10.80;5.00;;;22.70;98.00;;;;;;4966641;28;20033;-80
2023/08/16 08:26:29;;;;;;;9.80;5.60;;;22.70;98.10;;;;;;4945104;28;20767;-79
2023/08/16 08:28:54;;;;;;;14.13;5.40;;;22.90;98.00;;;;;;4961152;28;20027;-79
2023/08/16 08:31:23;;;;;;;10.52;5.57;;;23.10;97.60;;;;;;4964893;28;20096;-79
2023/08/16 08:33:49;;;;;;;7.57;4.45;;;23.10;97.00;;;;;;4962152;28;20042;-78
2023/08/16 08:36:17;;;;;;;7.47;4.95;;;23.30;96.60;;;;;;4965611;28;20055;-79
2023/08/16 08:38:45;;;;;;;11.15;4.72;;;23.50;96.40;;;;;;4945262;28;20042;-78
2023/08/16 08:41:11;;;;;;;11.93;5.03;;;23.60;96.30;;;;;;4962197;28;20533;-78
2023/08/16 08:43:37;;;;;;;10.57;4.35;;;23.70;95.70;;;;;;4945571;28;20034;-80
2023/08/16 08:46:05;;;;;;;861.22;445.42;;;23.70;95.70;;;;;;4946822;28;20383;-80
2023/08/16 08:48:31;;;;;;;165.02;77.65;;;23.90;95.20;;;;;;4958233;28;20085;-80
2023/08/16 08:50:58;;;;;;;6.07;4.90;;;23.90;95.20;;;;;;4962636;28;20030;-80
2023/08/16 08:53:25;;;;;;;9.60;5.32;;;24.10;95.20;;;;;;4942543;28;20081;-79
2023/08/16 08:55:55;;;;;;;6.63;4.57;;;24.30;94.20;;;;;;4954968;28;20031;-79
2023/08/16 08:58:22;;;;;;;6.93;4.47;;;24.50;94.20;;;;;;4945584;28;20019;-79
2023/08/16 09:00:49;;;;;;;9.50;4.32;;;24.50;94.20;;;;;;4959292;28;20054;-79
2023/08/16 09:03:22;;;;;;;7.25;4.32;;;24.30;94.00;;;;;;4960132;28;20033;-79
2023/08/16 09:05:53;;;;;;;8.57;4.72;;;24.30;94.20;;;;;;4959843;28;20031;-79
2023/08/16 09:08:22;;;;;;;10.13;5.55;;;24.50;94.30;;;;;;4959466;28;20110;-79
2023/08/16 09:10:50;;;;;;;7.65;4.32;;;24.50;94.00;;;;;;4961070;28;20026;-79
2023/08/16 09:13:16;;;;;;;7.78;4.53;;;24.50;93.40;;;;;;4937641;28;20027;-80
2023/08/16 09:15:42;;;;;;;88.63;34.50;;;24.90;93.80;;;;;;4952819;28;20472;-80
2023/08/16 09:18:17;;;;;;;14.45;7.63;;;25.20;93.10;;;;;;4960765;28;20030;-81
2023/08/16 09:20:44;;;;;;;12.65;3.85;;;25.70;92.50;;;;;;4958394;28;20034;-79
2023/08/16 09:23:19;;;;;;;8.93;4.50;;;25.90;91.90;;;;;;4952900;28;20039;-79
2023/08/16 09:25:49;;;;;;;9.90;4.47;;;25.70;91.20;;;;;;4953104;28;20030;-78
2023/08/16 09:28:15;;;;;;;11.93;4.82;;;25.30;92.00;;;;;;4959022;28;20634;-79
2023/08/16 09:30:41;;;;;;;7.05;4.00;;;25.40;92.20;;;;;;4938559;28;20023;-79
2023/08/16 09:33:09;;;;;;;4.88;4.30;;;25.60;92.50;;;;;;4962619;28;20026;-79
2023/08/16 09:35:44;;;;;;;12.80;6.28;;;25.80;91.20;;;;;;4958406;28;20037;-79
2023/08/16 09:38:16;;;;;;;6.13;4.57;;;25.90;91.80;;;;;;4945577;28;20033;-79
2023/08/16 09:40:52;;;;;;;8.38;3.67;;;26.20;91.00;;;;;;4958794;28;20384;-80
2023/08/16 09:43:20;;;;;;;8.32;3.70;;;26.90;89.50;;;;;;4936297;28;20039;-83
2023/08/16 09:45:54;;;;;;;4.40;3.78;;;27.60;89.70;;;;;;4945093;28;20027;-83
2023/08/16 09:48:21;;;;;;;5.50;3.60;;;28.10;83.60;;;;;;4942978;28;20463;-83
2023/08/16 09:50:47;;;;;;;6.53;3.00;;;;;;;;;;4944081;28;20110;-83
2023/08/16 09:53:13;;;;;;;8.18;3.10;;;28.10;82.20;;;;;;4957869;28;20566;-83
2023/08/16 09:55:40;;;;;;;5.03;3.63;;;28.40;83.30;;;;;;4942592;28;20105;-82
2023/08/16 09:58:11;;;;;;;8.25;4.10;;;28.60;82.60;;;;;;4938227;28;20070;-82
2023/08/16 10:00:40;;;;;;;7.53;4.10;;;28.90;80.40;;;;;;4960653;28;20029;-83
2023/08/16 10:03:08;;;;;;;7.30;3.35;;;29.00;81.10;;;;;;4947856;28;20051;-85
2023/08/16 10:05:34;;;;;;;4.28;3.17;;;29.10;82.80;;;;;;4946556;28;20053;-84
2023/08/16 10:08:04;;;;;;;4.80;3.17;;;29.60;80.70;;;;;;4945922;28;20042;-81
2023/08/16 10:10:31;;;;;;;76.03;34.38;;;30.10;77.30;;;;;;4945812;28;20038;-91
2023/08/16 10:12:59;;;;;;;3.45;2.80;;;31.10;72.70;;;;;;4947659;28;20404;-83
2023/08/16 10:15:25;;;;;;;4.35;2.63;;;31.50;71.50;;;;;;4938649;28;20322;-84
2023/08/16 10:17:55;;;;;;;4.45;2.75;;;31.90;69.00;;;;;;4960800;28;20027;-84
2023/08/16 10:20:26;;;;;;;3.35;3.05;;;31.90;69.50;;;;;;4959591;28;20026;-83
2023/08/16 10:23:00;;;;;;;7.63;2.60;;;31.30;70.60;;;;;;4958637;28;20043;-84
2023/08/16 10:25:36;;;;;;;3.75;2.63;;;31.40;69.60;;;;;;4958169;28;20031;-79
2023/08/16 10:28:03;;;;;;;6.25;3.22;;;31.30;70.80;;;;;;4942346;28;20122;-79
2023/08/16 10:30:32;;;;;;;5.53;2.90;;;31.30;71.20;;;;;;4960366;28;20046;-79
2023/08/16 10:33:24;;;;;;;5.95;2.80;;;31.30;73.60;;;;;;4959856;28;20622;-79
2023/08/16 10:35:51;;;;;;;2.60;2.40;;;31.00;73.10;;;;;;4953299;28;20042;-79
2023/08/16 10:38:19;;;;;;;5.07;2.67;;;30.60;72.20;;;;;;4945513;28;20049;-79
2023/08/16 10:40:57;;;;;;;5.20;3.17;;;30.40;72.40;;;;;;4940360;28;20122;-78
2023/08/16 10:43:34;;;;;;;2.60;2.13;;;30.50;73.10;;;;;;4940157;28;20491;-79
2023/08/16 10:46:00;;;;;;;3.80;2.55;;;30.50;76.20;;;;;;4941046;28;20039;-80
2023/08/16 10:48:39;;;;;;;7.63;2.97;;;30.40;72.20;;;;;;4948196;28;20023;-80
2023/08/16 10:51:07;;;;;;;4.25;2.70;;;29.90;74.60;;;;;;4961249;28;20558;-79
2023/08/16 10:53:34;;;;;;;2.97;2.55;;;30.10;74.30;;;;;;4946798;28;20117;-79
2023/08/16 10:56:10;;;;;;;6.20;3.53;;;29.90;72.80;;;;;;5062330;23;20865;-83
2023/08/16 10:58:49;;;;;;;4.35;2.65;;;29.50;75.20;;;;;;4957734;28;20035;-83
2023/08/16 11:01:20;;;;;;;5.82;2.40;;;29.30;76.40;;;;;;4954592;28;20274;-84
2023/08/16 11:03:49;;;;;;;4.93;2.28;;;29.30;75.70;;;;;;4952346;28;20539;-84
2023/08/16 11:06:22;;;;;;;3.45;2.92;;;29.50;76.00;;;;;;4955536;28;20028;-83
2023/08/16 11:08:50;;;;;;;4.80;2.53;;;29.50;74.20;;;;;;4938346;28;20031;-83
2023/08/16 11:11:15;;;;;;;3.90;2.40;;;29.30;76.80;;;;;;4940710;28;20050;-84
2023/08/16 11:13:44;;;;;;;4.20;2.50;;;29.10;76.20;;;;;;4954852;28;20063;-84
2023/08/16 11:16:13;;;;;;;9.80;2.95;;;29.30;76.10;;;;;;4951478;28;20503;-83
2023/08/16 11:18:41;;;;;;;11.25;2.63;;;29.20;76.10;;;;;;4953671;28;20030;-82
2023/08/16 11:21:07;;;;;;;6.70;4.03;;;29.10;76.70;;;;;;4954955;28;20086;-84
2023/08/16 11:23:37;;;;;;;2.40;2.05;;;29.00;77.00;;;;;;4938331;28;20255;-82
2023/08/16 11:26:05;;;;;;;4.85;2.13;;;29.20;76.80;;;;;;4937952;28;20050;-84
2023/08/16 11:28:32;;;;;;;2.55;2.22;;;29.20;74.50;;;;;;4935530;28;20035;-84
2023/08/16 11:31:01;;;;;;;4.13;2.38;;;29.20;75.40;;;;;;4955168;28;20058;-84
2023/08/16 11:33:40;;;;;;;4.07;2.58;;;29.30;75.00;;;;;;4938418;28;20466;-80
2023/08/16 11:36:11;;;;;;;4.32;2.20;;;29.30;74.40;;;;;;4954393;28;20443;-79
2023/08/16 11:38:39;;;;;;;4.82;1.75;;;29.30;76.00;;;;;;4951388;28;20019;-79
2023/08/16 11:41:07;;;;;;;2.50;2.30;;;29.10;74.50;;;;;;4940057;28;20509;-79
2023/08/16 11:43:34;;;;;;;4.20;2.25;;;29.00;75.10;;;;;;4955419;28;20071;-83
2023/08/16 11:46:01;;;;;;;6.07;2.53;;;28.90;75.80;;;;;;4953146;28;20432;-79
2023/08/16 11:48:33;;;;;;;4.00;2.40;;;28.70;75.10;;;;;;4956965;28;20122;-79
2023/08/16 11:50:59;;;;;;;5.80;2.50;;;28.50;75.90;;;;;;4939950;28;20542;-79
2023/08/16 11:53:33;;;;;;;3.53;2.10;;;28.40;76.80;;;;;;4943537;28;20030;-83
2023/08/16 11:56:00;;;;;;;3.55;2.35;;;28.40;77.50;;;;;;4939665;28;20023;-79
2023/08/16 11:58:29;;;;;;;5.72;2.03;;;28.40;78.30;;;;;;4956853;28;20042;-79
2023/08/16 12:01:09;;;;;;;5.85;2.45;;;28.50;78.70;;;;;;4956616;28;20538;-80
2023/08/16 12:03:37;;;;;;;4.28;2.78;;;28.50;77.50;;;;;;4945788;28;20099;-83
2023/08/16 12:06:08;;;;;;;7.78;2.30;;;28.60;76.90;;;;;;4957596;28;20027;-83
2023/08/16 12:08:35;;;;;;;3.22;2.20;;;28.50;77.20;;;;;;4947301;28;20035;-82
2023/08/16 12:11:02;;;;;;;3.75;2.30;;;28.60;77.40;;;;;;4954866;28;20027;-84
2023/08/16 12:13:28;;;;;;;6.15;2.35;;;28.60;76.90;;;;;;4960766;28;20038;-84
2023/08/16 12:15:56;;;;;;;5.43;2.53;;;28.50;77.60;;;;;;4943920;28;20027;-82
2023/08/16 12:18:25;;;;;;;7.63;2.85;;;28.40;77.30;;;;;;4946465;28;20539;-84
2023/08/16 12:20:52;;;;;;;7.90;2.90;;;28.30;77.00;;;;;;4957999;28;20143;-83
2023/08/16 12:23:19;;;;;;;3.00;2.20;;;28.40;77.20;;;;;;4956529;28;20436;-83
2023/08/16 12:25:45;;;;;;;5.25;2.40;;;28.40;76.90;;;;;;4952608;28;20053;-83
2023/08/16 12:28:10;;;;;;;2.78;2.13;;;28.50;78.90;;;;;;4946062;28;20110;-79
2023/08/16 12:30:37;;;;;;;4.18;2.10;;;28.50;76.40;;;;;;4945678;28;20059;-83
2023/08/16 12:33:05;;;;;;;3.15;2.13;;;28.50;76.30;;;;;;4942254;28;21294;-84
2023/08/16 12:35:31;;;;;;;5.35;2.92;;;28.50;76.20;;;;;;4959402;28;20030;-84
2023/08/16 12:38:02;;;;;;;4.65;2.40;;;28.40;75.90;;;;;;4959844;28;20031;-84
2023/08/16 12:40:29;;;;;;;3.78;2.30;;;28.40;77.10;;;;;;4955511;28;20038;-83
2023/08/16 12:43:02;;;;;;;3.95;2.17;;;28.30;77.00;;;;;;4939676;28;20023;-83